Terral, Oklahoma
Current Conditions -  °F | °C
As of 9:55 AM on Friday 24 Oct 2014 (Local Time) from K0F2 Reporting Station
Clear Clear  
Wind Chill: 66°   Ceiling: Unl
Heat Index: 66°   Visibility: 10mi
Dew Point: 59°   Wind: 7mph
Humidity: 79%   Direction: 170°S
Pressure: 30.15"   Gusts: NA
Location:  33.9°N, 97.94°W
Report Text: K0F2 241455Z AUTO 17006KT 10SM CLR 19/15 A3015 RMK AO2 T01880150
Loading
Personal Weather Stations






























Interactive Weather Map
Tropical Storm Tracking
New forecast layout! Learn more

10-Day Weather Forecast

Advertisements
Track Severe Weather on mobile